createdAt,value
2023-04-22T00:00:54.850Z,10.89
2023-04-22T00:03:23.079Z,10.86
2023-04-22T00:05:49.819Z,10.85
2023-04-22T00:08:16.348Z,10.97
2023-04-22T00:10:42.794Z,10.96
2023-04-22T00:13:09.217Z,11.00
2023-04-22T00:15:35.656Z,10.98
2023-04-22T00:18:02.834Z,10.98
2023-04-22T00:20:29.373Z,10.91
2023-04-22T00:22:55.927Z,10.96
2023-04-22T00:25:22.388Z,11.00
2023-04-22T00:27:48.933Z,10.80
2023-04-22T00:30:15.497Z,10.76
2023-04-22T00:32:42.095Z,10.88
2023-04-22T00:35:08.847Z,10.78
2023-04-22T00:37:35.282Z,10.64
2023-04-22T00:40:01.841Z,10.62
2023-04-22T00:42:28.249Z,10.62
2023-04-22T00:44:55.176Z,10.75
2023-04-22T00:47:26.624Z,10.80
2023-04-22T00:49:53.967Z,10.77
2023-04-22T00:52:20.312Z,10.81
2023-04-22T00:54:46.870Z,10.86
2023-04-22T00:57:13.246Z,10.88
2023-04-22T00:59:40.018Z,10.91
2023-04-22T01:02:07.029Z,10.87
2023-04-22T01:04:34.471Z,10.86
2023-04-22T01:07:01.646Z,10.82
2023-04-22T01:09:28.273Z,10.80
2023-04-22T01:11:54.791Z,10.83
2023-04-22T01:14:21.180Z,10.83
2023-04-22T01:16:48.410Z,10.74
2023-04-22T01:19:15.140Z,10.69
2023-04-22T01:21:44.854Z,10.71
2023-04-22T01:24:11.329Z,10.68
2023-04-22T01:26:37.894Z,10.69
2023-04-22T01:29:05.428Z,10.72
2023-04-22T01:31:33.403Z,10.74
2023-04-22T01:34:00.070Z,10.69
2023-04-22T01:36:27.054Z,10.70
2023-04-22T01:38:54.008Z,10.72
2023-04-22T01:41:21.125Z,10.70
2023-04-22T01:43:48.302Z,10.68
2023-04-22T01:46:16.688Z,10.69
2023-04-22T01:48:43.504Z,10.67
2023-04-22T01:51:09.965Z,10.68
2023-04-22T01:53:36.344Z,10.69
2023-04-22T01:56:02.948Z,10.68
2023-04-22T01:58:29.828Z,10.77
2023-04-22T02:00:56.407Z,10.73
2023-04-22T02:03:22.728Z,10.73
2023-04-22T02:05:49.283Z,10.72
2023-04-22T02:08:15.697Z,10.75
2023-04-22T02:10:42.178Z,10.83
2023-04-22T02:13:08.735Z,10.86
2023-04-22T02:15:35.785Z,10.86
2023-04-22T02:18:02.202Z,10.88
2023-04-22T02:20:29.352Z,10.86
2023-04-22T02:22:55.800Z,10.86
2023-04-22T02:25:22.148Z,10.90
2023-04-22T02:27:48.588Z,10.98
2023-04-22T02:30:14.978Z,11.02
2023-04-22T02:32:41.441Z,10.98
2023-04-22T02:35:08.454Z,10.86
2023-04-22T02:37:34.816Z,10.94
2023-04-22T02:40:01.241Z,10.93
2023-04-22T02:42:27.632Z,10.95
2023-04-22T02:44:54.030Z,11.00
2023-04-22T02:47:20.963Z,11.02
2023-04-22T02:49:47.544Z,11.08
2023-04-22T02:52:13.909Z,11.07
2023-04-22T02:54:40.312Z,11.03
2023-04-22T02:57:06.778Z,11.08
2023-04-22T02:59:34.820Z,11.08
2023-04-22T03:02:01.682Z,11.13
2023-04-22T03:04:28.372Z,11.16
2023-04-22T03:06:54.866Z,11.18
2023-04-22T03:09:21.282Z,11.22
2023-04-22T03:11:47.641Z,11.28
2023-04-22T03:14:13.961Z,11.32
2023-04-22T03:16:40.446Z,11.35
2023-04-22T03:19:06.848Z,11.36
2023-04-22T03:21:33.297Z,11.37
2023-04-22T03:23:59.806Z,11.36
2023-04-22T03:26:26.147Z,11.44
2023-04-22T03:28:52.490Z,11.46
2023-04-22T03:31:19.394Z,11.49
2023-04-22T03:33:46.575Z,11.49
2023-04-22T03:36:12.964Z,11.49
2023-04-22T03:38:39.332Z,11.50
2023-04-22T03:41:05.738Z,11.57
2023-04-22T03:43:32.070Z,11.63
2023-04-22T03:45:59.814Z,11.64
2023-04-22T03:48:26.151Z,11.66
2023-04-22T03:50:52.470Z,11.71
2023-04-22T03:53:18.959Z,11.75
2023-04-22T03:55:45.503Z,11.75
2023-04-22T03:58:11.872Z,11.78
2023-04-22T04:00:38.330Z,11.77
2023-04-22T04:03:05.404Z,11.77
2023-04-22T04:05:32.120Z,11.80
2023-04-22T04:07:58.677Z,11.80
2023-04-22T04:10:25.205Z,11.80
2023-04-22T04:12:51.621Z,11.83
2023-04-22T04:15:21.465Z,11.88
2023-04-22T04:17:48.272Z,11.89
2023-04-22T04:20:15.763Z,11.95
2023-04-22T04:22:43.446Z,11.96
2023-04-22T04:25:10.354Z,11.95
2023-04-22T04:27:39.060Z,11.97
2023-04-22T04:30:07.104Z,12.01
2023-04-22T04:32:36.696Z,12.04
2023-04-22T04:35:03.141Z,12.02
2023-04-22T04:37:29.633Z,12.06
2023-04-22T04:39:59.152Z,12.12
2023-04-22T04:42:25.722Z,12.07
2023-04-22T04:44:53.556Z,12.07
2023-04-22T04:47:20.038Z,12.07
2023-04-22T04:49:47.166Z,12.07
2023-04-22T04:52:13.613Z,12.10
2023-04-22T04:54:40.007Z,12.16
2023-04-22T04:57:06.563Z,12.17
2023-04-22T04:59:32.990Z,12.18
2023-04-22T05:01:59.445Z,12.18
2023-04-22T05:04:26.004Z,12.22
2023-04-22T05:06:53.031Z,12.23
2023-04-22T05:09:19.383Z,12.24
2023-04-22T05:11:45.716Z,12.30
2023-04-22T05:14:12.109Z,12.31
2023-04-22T05:16:38.748Z,12.40
2023-04-22T05:19:05.187Z,12.42
2023-04-22T05:21:32.501Z,12.46
2023-04-22T05:23:58.966Z,12.49
2023-04-22T05:26:25.918Z,12.53
2023-04-22T05:28:52.404Z,12.49
2023-04-22T05:31:18.813Z,12.55
2023-04-22T05:33:45.170Z,12.59
2023-04-22T05:36:11.743Z,12.60
2023-04-22T05:38:39.267Z,12.70
2023-04-22T05:41:05.973Z,12.77
2023-04-22T05:43:32.391Z,12.87
2023-04-22T05:45:58.810Z,12.95
2023-04-22T05:48:25.333Z,13.01
2023-04-22T05:50:51.767Z,13.05
2023-04-22T05:53:18.293Z,13.08
2023-04-22T05:55:44.715Z,13.16
2023-04-22T05:58:11.246Z,13.22
2023-04-22T06:00:37.755Z,13.21
2023-04-22T06:03:04.665Z,13.28
2023-04-22T06:05:31.261Z,13.33
2023-04-22T06:07:57.757Z,13.37
2023-04-22T06:10:24.222Z,13.35
2023-04-22T06:12:50.678Z,13.43
2023-04-22T06:15:17.176Z,13.48
2023-04-22T06:17:44.307Z,13.45
2023-04-22T06:20:11.588Z,13.45
2023-04-22T06:22:37.935Z,13.43
2023-04-22T06:25:04.656Z,13.45
2023-04-22T06:27:31.028Z,13.51
2023-04-22T06:29:57.387Z,13.57
2023-04-22T06:32:23.718Z,13.65
2023-04-22T06:34:50.159Z,13.77
2023-04-22T06:37:16.466Z,13.85
2023-04-22T06:39:43.125Z,13.84
2023-04-22T06:42:09.717Z,13.97
2023-04-22T06:44:36.086Z,14.05
2023-04-22T06:47:02.605Z,14.08
2023-04-22T06:49:29.265Z,14.19
2023-04-22T06:51:55.671Z,14.25
2023-04-22T06:54:21.996Z,14.29
2023-04-22T06:56:48.831Z,14.36
2023-04-22T06:59:15.312Z,14.53
2023-04-22T07:01:41.764Z,14.73
2023-04-22T07:04:08.387Z,14.84
2023-04-22T07:06:34.787Z,14.99
2023-04-22T07:09:01.253Z,15.02
2023-04-22T07:11:27.783Z,15.20
2023-04-22T07:13:54.117Z,15.29
2023-04-22T07:16:20.527Z,15.49
2023-04-22T07:18:47.497Z,15.73
2023-04-22T07:21:14.100Z,15.91
2023-04-22T07:23:40.430Z,16.08
2023-04-22T07:26:06.802Z,16.16
2023-04-22T07:28:33.184Z,16.26
2023-04-22T07:30:59.573Z,16.31
2023-04-22T07:33:26.078Z,16.39
2023-04-22T07:35:52.498Z,16.52
2023-04-22T07:38:18.849Z,16.62
2023-04-22T07:40:45.426Z,16.79
2023-04-22T07:43:11.853Z,17.01
2023-04-22T07:45:38.309Z,17.21
2023-04-22T07:48:04.992Z,17.30
2023-04-22T07:50:31.602Z,17.51
2023-04-22T07:52:58.162Z,17.72
2023-04-22T07:55:24.697Z,17.80
2023-04-22T07:57:51.048Z,17.87
2023-04-22T08:00:17.514Z,17.84
2023-04-22T08:02:44.252Z,17.93
2023-04-22T08:05:11.551Z,18.12
2023-04-22T08:07:38.014Z,18.15
2023-04-22T08:10:05.550Z,18.21
2023-04-22T08:12:31.925Z,18.36
2023-04-22T08:14:58.603Z,18.54
2023-04-22T08:17:25.135Z,18.63
2023-04-22T08:19:51.561Z,18.64
2023-04-22T08:22:18.957Z,18.52
2023-04-22T08:24:45.295Z,18.45
2023-04-22T08:27:11.654Z,18.48
2023-04-22T08:29:38.403Z,18.55
2023-04-22T08:32:05.018Z,18.83
2023-04-22T08:34:31.758Z,18.98
2023-04-22T08:36:58.383Z,18.95
2023-04-22T08:39:24.756Z,19.05
2023-04-22T08:41:51.754Z,18.89
2023-04-22T08:44:19.664Z,18.70
2023-04-22T08:46:47.197Z,18.67
2023-04-22T08:49:16.986Z,18.57
2023-04-22T08:51:44.423Z,18.47
2023-04-22T08:54:11.510Z,18.49
2023-04-22T08:56:43.266Z,18.66
2023-04-22T08:59:11.546Z,18.93
2023-04-22T09:01:39.725Z,19.03
2023-04-22T09:04:06.894Z,19.31
2023-04-22T09:06:33.535Z,19.50
2023-04-22T09:09:01.190Z,19.77
2023-04-22T09:11:29.174Z,19.86
2023-04-22T09:13:55.632Z,19.76
2023-04-22T09:16:22.053Z,19.79
2023-04-22T09:18:49.704Z,19.88
2023-04-22T09:21:16.523Z,19.98
2023-04-22T09:23:53.689Z,20.14
2023-04-22T09:26:24.574Z,20.30
2023-04-22T09:28:52.833Z,20.56
2023-04-22T09:31:20.668Z,20.52
2023-04-22T09:33:52.425Z,20.56
2023-04-22T09:36:37.599Z,20.79
2023-04-22T09:39:09.016Z,20.75
2023-04-22T09:41:40.323Z,20.77
2023-04-22T09:44:18.128Z,20.86
2023-04-22T09:46:45.312Z,20.73
2023-04-22T09:49:12.275Z,20.85
2023-04-22T09:51:42.461Z,20.85
2023-04-22T09:54:10.499Z,20.87
2023-04-22T09:56:48.093Z,20.92
2023-04-22T09:59:28.571Z,20.92
2023-04-22T10:01:57.713Z,21.15
2023-04-22T10:04:25.609Z,21.22
2023-04-22T10:06:53.398Z,21.30
2023-04-22T10:09:22.894Z,21.41
2023-04-22T10:11:52.277Z,21.25
2023-04-22T10:14:19.660Z,20.98
2023-04-22T10:16:47.717Z,20.73
2023-04-22T10:19:19.112Z,20.80
2023-04-22T10:21:47.238Z,20.56
2023-04-22T10:24:20.285Z,20.39
2023-04-22T10:26:57.615Z,20.44
2023-04-22T10:29:25.802Z,20.62
2023-04-22T10:32:05.542Z,20.73
2023-04-22T10:34:32.530Z,20.93
2023-04-22T10:37:07.524Z,21.24
2023-04-22T10:39:33.909Z,21.41
2023-04-22T10:42:03.323Z,21.45
2023-04-22T10:44:54.755Z,21.43
2023-04-22T10:47:29.560Z,21.54
2023-04-22T10:50:10.352Z,21.70
2023-04-22T10:52:37.280Z,21.73
2023-04-22T10:55:04.020Z,21.76
2023-04-22T10:57:40.541Z,21.83
2023-04-22T11:00:19.148Z,21.83
2023-04-22T11:02:47.172Z,21.89
2023-04-22T11:05:20.890Z,21.77
2023-04-22T11:07:49.537Z,21.84
2023-04-22T11:10:37.162Z,21.87
2023-04-22T11:13:03.759Z,22.09
2023-04-22T11:15:31.440Z,22.04
2023-04-22T11:17:58.253Z,22.09
2023-04-22T11:20:24.918Z,21.99
2023-04-22T11:22:55.442Z,21.93
2023-04-22T11:25:22.979Z,21.89
2023-04-22T11:27:49.876Z,21.91
2023-04-22T11:30:18.562Z,21.95
2023-04-22T11:32:46.867Z,21.90
2023-04-22T11:35:22.068Z,21.87
2023-04-22T11:37:55.753Z,21.78
2023-04-22T11:40:39.324Z,21.69
2023-04-22T11:43:08.922Z,21.41
2023-04-22T11:45:36.890Z,21.28
2023-04-22T11:48:06.438Z,21.22
2023-04-22T11:50:36.179Z,21.18
2023-04-22T11:53:14.801Z,21.23
2023-04-22T11:55:42.089Z,21.21
2023-04-22T11:58:11.621Z,21.36
2023-04-22T12:00:47.408Z,21.37
2023-04-22T12:03:18.260Z,21.46
2023-04-22T12:06:04.880Z,21.30
2023-04-22T12:08:33.697Z,21.23
2023-04-22T12:11:02.500Z,21.24
2023-04-22T12:13:34.735Z,21.32
2023-04-22T12:16:06.671Z,21.31
2023-04-22T12:18:37.973Z,21.33
2023-04-22T12:21:04.256Z,21.47
2023-04-22T12:23:40.945Z,21.53
2023-04-22T12:26:07.618Z,21.45
2023-04-22T12:28:33.986Z,21.45
2023-04-22T12:31:00.476Z,21.52
2023-04-22T12:33:27.036Z,21.45
2023-04-22T12:35:53.537Z,21.53
2023-04-22T12:38:20.289Z,21.52
2023-04-22T12:40:46.632Z,21.52
2023-04-22T12:43:13.311Z,21.58
2023-04-22T12:45:40.791Z,21.61
2023-04-22T12:48:07.721Z,21.54
2023-04-22T12:50:34.104Z,21.57
2023-04-22T12:53:00.566Z,21.59
2023-04-22T12:55:27.204Z,21.60
2023-04-22T12:57:53.800Z,21.67
2023-04-22T13:00:20.556Z,21.81
2023-04-22T13:02:48.890Z,21.73
2023-04-22T13:05:17.012Z,21.70
2023-04-22T13:07:45.398Z,21.66
2023-04-22T13:10:14.975Z,21.65
2023-04-22T13:12:42.861Z,21.59
2023-04-22T13:15:10.853Z,21.54
2023-04-22T13:17:38.110Z,21.42
2023-04-22T13:20:06.870Z,21.36
2023-04-22T13:22:33.866Z,21.31
2023-04-22T13:25:00.299Z,21.22
2023-04-22T13:27:26.939Z,21.17
2023-04-22T13:29:53.276Z,21.12
2023-04-22T13:32:19.786Z,21.05
2023-04-22T13:34:46.330Z,21.02
2023-04-22T13:37:14.915Z,21.01
2023-04-22T13:39:41.893Z,21.03
2023-04-22T13:42:08.637Z,20.90
2023-04-22T13:44:35.172Z,20.72
2023-04-22T13:47:02.776Z,20.69
2023-04-22T13:49:29.338Z,20.66
2023-04-22T13:51:56.274Z,20.61
2023-04-22T13:54:23.060Z,20.54
2023-04-22T13:56:49.906Z,20.50
2023-04-22T13:59:16.685Z,20.50
2023-04-22T14:01:43.230Z,20.47
2023-04-22T14:04:11.771Z,20.39
2023-04-22T14:06:39.714Z,20.36
2023-04-22T14:09:06.937Z,20.32
2023-04-22T14:11:33.783Z,20.26
2023-04-22T14:14:00.190Z,20.16
2023-04-22T14:16:26.609Z,20.20
2023-04-22T14:18:53.773Z,20.11
2023-04-22T14:21:20.159Z,19.99
2023-04-22T14:23:46.513Z,19.90
2023-04-22T14:26:12.878Z,19.89
2023-04-22T14:28:40.571Z,19.88
2023-04-22T14:31:07.175Z,19.85
2023-04-22T14:33:33.767Z,19.85
2023-04-22T14:36:00.290Z,19.90
2023-04-22T14:38:26.864Z,19.86
2023-04-22T14:40:53.296Z,19.78
2023-04-22T14:43:19.779Z,19.82
2023-04-22T14:45:47.349Z,19.74
2023-04-22T14:48:13.875Z,19.73
2023-04-22T14:50:40.402Z,19.75
2023-04-22T14:53:06.930Z,19.69
2023-04-22T14:55:35.365Z,19.65
2023-04-22T14:58:01.731Z,19.65
2023-04-22T15:00:28.627Z,19.59
2023-04-22T15:02:56.022Z,19.65
2023-04-22T15:05:23.467Z,19.71
2023-04-22T15:07:51.085Z,19.73
2023-04-22T15:10:17.485Z,19.70
2023-04-22T15:12:44.924Z,19.60
2023-04-22T15:15:13.994Z,19.45
2023-04-22T15:17:41.085Z,19.34
2023-04-22T15:20:09.239Z,19.13
2023-04-22T15:22:36.963Z,18.98
2023-04-22T15:25:03.849Z,18.99
2023-04-22T15:27:30.608Z,19.01
2023-04-22T15:29:57.614Z,19.04
2023-04-22T15:32:24.013Z,19.00
2023-04-22T15:34:50.539Z,19.04
2023-04-22T15:37:17.048Z,19.07
2023-04-22T15:39:43.541Z,19.01
2023-04-22T15:42:09.989Z,19.02
2023-04-22T15:44:36.470Z,19.06
2023-04-22T15:47:03.787Z,19.06
2023-04-22T15:49:30.485Z,19.00
2023-04-22T15:51:57.799Z,19.02
2023-04-22T15:54:24.136Z,18.99
2023-04-22T15:56:50.555Z,19.00
2023-04-22T15:59:16.961Z,18.92
2023-04-22T16:01:45.808Z,18.83
2023-04-22T16:04:13.377Z,18.81
2023-04-22T16:06:40.450Z,18.73
2023-04-22T16:09:06.867Z,18.70
2023-04-22T16:11:33.283Z,18.74
2023-04-22T16:13:59.649Z,18.69
2023-04-22T16:16:26.760Z,18.60
2023-04-22T16:18:53.532Z,18.60
2023-04-22T16:21:19.927Z,18.58
2023-04-22T16:23:46.268Z,18.60
2023-04-22T16:26:12.709Z,18.59
2023-04-22T16:28:39.046Z,18.51
2023-04-22T16:31:05.550Z,18.43
2023-04-22T16:33:33.161Z,18.40
2023-04-22T16:35:59.512Z,18.37
2023-04-22T16:38:25.945Z,18.41
2023-04-22T16:40:54.239Z,18.31
2023-04-22T16:43:20.863Z,18.29
2023-04-22T16:45:47.438Z,18.21
2023-04-22T16:48:13.935Z,18.16
2023-04-22T16:50:40.623Z,18.11
2023-04-22T16:53:08.669Z,17.98
2023-04-22T16:55:36.865Z,17.95
2023-04-22T16:58:03.910Z,17.88
2023-04-22T17:00:30.590Z,17.79
2023-04-22T17:02:57.093Z,17.74
2023-04-22T17:05:23.597Z,17.73
2023-04-22T17:07:49.935Z,17.61
2023-04-22T17:10:16.372Z,17.54
2023-04-22T17:12:42.682Z,17.48
2023-04-22T17:15:09.620Z,17.49
2023-04-22T17:17:36.030Z,17.47
2023-04-22T17:20:02.654Z,17.48
2023-04-22T17:22:29.079Z,17.42
2023-04-22T17:24:57.338Z,17.42
2023-04-22T17:27:23.727Z,17.38
2023-04-22T17:29:50.170Z,17.36
2023-04-22T17:32:17.167Z,17.31
2023-04-22T17:34:43.698Z,17.17
2023-04-22T17:37:10.163Z,17.15
2023-04-22T17:39:36.849Z,17.10
2023-04-22T17:42:03.459Z,17.11
2023-04-22T17:44:30.990Z,17.05
2023-04-22T17:46:57.540Z,16.98
2023-04-22T17:49:24.115Z,16.95
2023-04-22T17:51:50.509Z,16.99
2023-04-22T17:54:17.068Z,17.02
2023-04-22T17:56:43.469Z,17.05
2023-04-22T17:59:11.316Z,17.04
2023-04-22T18:01:39.071Z,16.98
2023-04-22T18:04:05.840Z,16.96
2023-04-22T18:06:32.445Z,16.89
2023-04-22T18:08:58.895Z,16.87
2023-04-22T18:11:25.783Z,16.76
2023-04-22T18:13:52.496Z,16.71
2023-04-22T18:16:18.981Z,16.61
2023-04-22T18:18:45.522Z,16.48
2023-04-22T18:21:11.885Z,16.41
2023-04-22T18:23:39.189Z,16.49
2023-04-22T18:26:09.664Z,16.40
2023-04-22T18:28:37.033Z,16.38
2023-04-22T18:31:03.513Z,16.29
2023-04-22T18:33:30.093Z,16.17
2023-04-22T18:35:56.553Z,16.15
2023-04-22T18:38:23.099Z,16.20
2023-04-22T18:40:49.494Z,16.21
2023-04-22T18:43:16.120Z,16.19
2023-04-22T18:45:42.654Z,16.14
2023-04-22T18:48:09.077Z,16.14
2023-04-22T18:50:35.511Z,16.10
2023-04-22T18:53:02.019Z,16.07
2023-04-22T18:55:28.641Z,16.05
2023-04-22T18:57:55.007Z,16.04
2023-04-22T19:00:21.765Z,15.97
2023-04-22T19:02:48.362Z,15.93
2023-04-22T19:05:14.967Z,15.91
2023-04-22T19:07:44.469Z,15.86
2023-04-22T19:10:11.477Z,15.77
2023-04-22T19:12:37.858Z,15.70
2023-04-22T19:15:04.885Z,15.61
2023-04-22T19:17:31.333Z,15.58
2023-04-22T19:19:57.673Z,15.60
2023-04-22T19:22:24.447Z,15.58
2023-04-22T19:24:51.227Z,15.58
2023-04-22T19:27:18.183Z,15.60
2023-04-22T19:29:51.170Z,15.57
2023-04-22T19:32:17.781Z,15.54
2023-04-22T19:34:44.689Z,15.53
2023-04-22T19:37:11.429Z,15.51
2023-04-22T19:39:37.829Z,15.61
2023-04-22T19:42:04.783Z,15.60
2023-04-22T19:44:32.073Z,15.67
2023-04-22T19:46:58.488Z,15.71
2023-04-22T19:49:25.334Z,15.71
2023-04-22T19:51:52.639Z,15.75
2023-04-22T19:54:21.831Z,15.72
2023-04-22T19:56:48.981Z,15.74
2023-04-22T19:59:16.381Z,15.78
2023-04-22T20:01:43.008Z,15.66
2023-04-22T20:04:09.699Z,15.58
2023-04-22T20:06:36.589Z,15.38
2023-04-22T20:09:05.285Z,15.34
2023-04-22T20:11:32.590Z,15.30
2023-04-22T20:13:59.347Z,15.32
2023-04-22T20:16:26.981Z,15.35
2023-04-22T20:18:54.426Z,15.35
2023-04-22T20:21:21.315Z,15.30
2023-04-22T20:23:49.684Z,15.30
2023-04-22T20:26:19.927Z,15.28
2023-04-22T20:28:48.748Z,15.18
2023-04-22T20:31:20.425Z,15.10
2023-04-22T20:33:47.001Z,15.11
2023-04-22T20:36:16.910Z,15.12
2023-04-22T20:38:47.262Z,15.06
2023-04-22T20:41:14.402Z,14.94
2023-04-22T20:43:42.344Z,14.84
2023-04-22T20:46:08.863Z,14.86
2023-04-22T20:48:35.358Z,14.85
2023-04-22T20:51:01.921Z,14.92
2023-04-22T20:53:28.373Z,14.92
2023-04-22T20:55:54.770Z,14.84
2023-04-22T20:58:22.125Z,14.83
2023-04-22T21:00:48.547Z,14.75
2023-04-22T21:03:18.240Z,14.72
2023-04-22T21:05:46.616Z,14.71
2023-04-22T21:08:23.792Z,14.64
2023-04-22T21:10:52.438Z,14.67
2023-04-22T21:13:19.991Z,14.65
2023-04-22T21:16:01.379Z,14.55
2023-04-22T21:18:28.911Z,14.52
2023-04-22T21:20:56.844Z,14.59
2023-04-22T21:23:24.519Z,14.48
2023-04-22T21:25:53.118Z,14.51
2023-04-22T21:28:21.940Z,14.42
2023-04-22T21:30:48.704Z,14.41
2023-04-22T21:33:15.147Z,14.44
2023-04-22T21:35:41.658Z,14.41
2023-04-22T21:38:11.573Z,14.37
2023-04-22T21:40:37.980Z,14.37
2023-04-22T21:43:07.415Z,14.21
2023-04-22T21:45:34.126Z,14.23
2023-04-22T21:48:00.631Z,14.23
2023-04-22T21:50:30.074Z,14.26
2023-04-22T21:52:56.544Z,14.21
2023-04-22T21:55:22.908Z,14.20
2023-04-22T21:57:49.330Z,14.11
2023-04-22T22:00:18.508Z,14.12
2023-04-22T22:02:46.324Z,14.10
2023-04-22T22:05:14.747Z,14.06
2023-04-22T22:07:42.551Z,14.04
2023-04-22T22:10:18.927Z,14.09
2023-04-22T22:12:46.424Z,14.06
2023-04-22T22:15:12.832Z,14.07
2023-04-22T22:17:40.274Z,14.07
2023-04-22T22:20:12.434Z,14.11
2023-04-22T22:22:43.366Z,14.04
2023-04-22T22:25:12.969Z,14.03
2023-04-22T22:27:48.690Z,13.97
2023-04-22T22:30:21.078Z,13.93
2023-04-22T22:32:48.007Z,13.90
2023-04-22T22:35:14.684Z,13.80
2023-04-22T22:37:41.211Z,13.75
2023-04-22T22:40:08.772Z,13.71
2023-04-22T22:42:36.123Z,13.68
2023-04-22T22:45:02.748Z,13.67
2023-04-22T22:47:29.190Z,13.71
2023-04-22T22:49:55.778Z,13.65
2023-04-22T22:52:22.565Z,13.69
2023-04-22T22:54:49.927Z,13.65
2023-04-22T22:57:16.501Z,13.65
2023-04-22T22:59:42.859Z,13.69
2023-04-22T23:02:09.391Z,13.68
2023-04-22T23:04:37.379Z,13.63
2023-04-22T23:07:04.009Z,13.60
2023-04-22T23:09:30.505Z,13.56
2023-04-22T23:11:57.053Z,13.54
2023-04-22T23:14:26.843Z,13.58
2023-04-22T23:16:53.297Z,13.53
2023-04-22T23:19:20.689Z,13.49
2023-04-22T23:21:48.660Z,13.47
2023-04-22T23:24:15.534Z,13.48
2023-04-22T23:26:43.155Z,13.45
2023-04-22T23:29:09.692Z,13.43
2023-04-22T23:31:36.584Z,13.39
2023-04-22T23:34:05.443Z,13.35
2023-04-22T23:36:33.746Z,13.34
2023-04-22T23:39:00.858Z,13.36
2023-04-22T23:41:27.659Z,13.29
2023-04-22T23:43:54.041Z,13.33
2023-04-22T23:46:20.514Z,13.33
2023-04-22T23:48:47.256Z,13.29
2023-04-22T23:51:16.693Z,13.25
2023-04-22T23:53:44.299Z,13.22
2023-04-22T23:56:12.303Z,13.17
2023-04-22T23:58:39.386Z,13.18
